aviador You're here:

KFAM Decoded Metar

FARMINGTON in MO, USA
Report Time2018-05-28 08:56:00
UTC Time2018-05-28 09:56:24
Flight Rules vfr VFR
WindCalm
Visibility9999 m
Phenomena:N/A
Clouds:N/A
Expected CloudBase > 400 ft AGL from Temp-Dew spread
CeilingNone
Temp20°C (ISA +7)
Dew Point19°C (94% RH)
QNH1014 hPa
Density Alt2,011 ft
Elevation945 ft
Report Wrong Elevation
Raw Report
KFAM 280856Z AUTO 00000KT 9SM CLR 20/19 A2994 RMK AO2 SLP126
T02000194 53002=

Extra information for KFAM:More info

Metar Taf Metar & Taf Last 4 Metars F.Rules Stats Wind Profile Meteogram Temp Stats Airport Information Weather charts Add Link Nearby VenuesMetar ALERT Operation Metar Decoded Social comments

AIRNAV info for KFAM